Time;durP1;ratioP1;P1;durP2;ratioP2;P2;SDS_P1;SDS_P2;PMS_P1;PMS_P2;Temp;Humidity;BMP_temperature;BMP_pressure;BME280_temperature;BME280_humidity;BME280_pressure;Samples;Min_cycle;Max_cycle;Signal;HPM_P1;HPM_P2
2022/11/17 00:00:34;;;;;;;54.33;9.65;;;;;;;10.17;100.00;94817.75;5098972;28;20071;-41
2022/11/17 00:03:04;;;;;;;40.30;9.90;;;;;;;10.15;100.00;94807.41;5097223;28;20080;-48
2022/11/17 00:05:32;;;;;;;67.07;9.53;;;;;;;10.05;100.00;94798.13;5102490;28;20087;-40
2022/11/17 00:08:00;;;;;;;55.00;9.60;;;;;;;9.95;100.00;94801.06;5097490;28;20109;-42
2022/11/17 00:10:29;;;;;;;32.45;8.77;;;;;;;9.89;100.00;94799.97;5104848;28;20086;-40
2022/11/17 00:15:44;;;;;;;47.33;8.77;;;;;;;9.96;100.00;94778.97;5104224;28;20075;-40
2022/11/17 00:23:48;;;;;;;32.60;8.10;;;;;;;9.75;100.00;94777.06;5102542;28;20087;-46
2022/11/17 00:26:19;;;;;;;52.22;9.15;;;;;;;9.81;100.00;94770.28;5099245;28;20071;-46
2022/11/17 00:28:47;;;;;;;23.92;8.10;;;;;;;9.77;100.00;94775.06;5098173;28;20075;-42
2022/11/17 00:34:05;;;;;;;43.35;8.77;;;;;;;10.14;100.00;94789.94;5102616;28;20087;-39
2022/11/17 00:36:36;;;;;;;31.23;8.68;;;;;;;10.27;100.00;94793.81;5104339;28;20109;-46
2022/11/17 00:39:05;;;;;;;32.22;8.65;;;;;;;10.35;100.00;94797.13;5100777;28;20071;-44
2022/11/17 00:41:33;;;;;;;23.38;8.18;;;;;;;10.31;100.00;94782.69;5101905;28;20079;-41
2022/11/17 00:44:02;;;;;;;49.85;10.40;;;;;;;10.30;100.00;94788.16;5099985;28;20466;-39
2022/11/17 00:46:30;;;;;;;25.27;9.13;;;;;;;10.26;100.00;94781.63;5102009;28;20079;-43
2022/11/17 00:48:59;;;;;;;22.70;8.50;;;;;;;10.30;100.00;94788.97;5101489;28;20083;-40
2022/11/17 00:51:28;;;;;;;30.25;8.07;;;;;;;10.49;100.00;94784.13;5101221;28;20075;-47
2022/11/17 00:53:57;;;;;;;30.15;8.05;;;;;;;10.44;100.00;94788.13;5103763;28;20075;-41
2022/11/17 00:56:25;;;;;;;27.25;7.82;;;;;;;10.42;100.00;94782.22;5098509;28;20489;-44
2022/11/17 00:58:54;;;;;;;20.67;7.93;;;;;;;10.42;100.00;94781.41;5098018;28;20072;-40
2022/11/17 01:01:23;;;;;;;29.30;7.85;;;;;;;10.32;100.00;94783.50;5100174;28;20106;-43
2022/11/17 01:04:01;;;;;;;22.15;7.70;;;;;;;10.32;100.00;94784.31;5101246;28;20087;-44
2022/11/17 01:06:33;;;;;;;25.73;8.13;;;;;;;10.48;100.00;94785.13;5098068;28;20072;-46
2022/11/17 01:09:03;;;;;;;13.02;7.13;;;;;;;10.44;100.00;94789.97;5105667;28;20473;-40
2022/11/17 01:11:32;;;;;;;28.40;8.03;;;;;;;10.46;100.00;94782.69;5102304;28;20184;-41
2022/11/17 01:14:01;;;;;;;15.18;7.15;;;;;;;10.45;100.00;94784.50;5098732;28;20672;-44
2022/11/17 01:16:30;;;;;;;25.60;7.85;;;;;;;10.44;100.00;94776.78;5104994;28;20098;-42
2022/11/17 01:19:00;;;;;;;17.63;7.75;;;;;;;10.46;100.00;94777.44;5102337;28;20074;-44
2022/11/17 01:21:30;;;;;;;12.32;7.32;;;;;;;10.41;100.00;94775.31;5101484;28;20078;-43
2022/11/17 01:24:00;;;;;;;17.75;7.80;;;;;;;10.54;100.00;94761.50;5101755;28;20084;-48
2022/11/17 01:26:32;;;;;;;16.85;7.90;;;;;;;10.57;100.00;94755.84;5097463;28;20080;-46
2022/11/17 01:29:00;;;;;;;16.98;7.78;;;;;;;10.64;100.00;94751.47;5100258;28;20087;-45
2022/11/17 01:31:30;;;;;;;14.75;7.60;;;;;;;10.67;100.00;94759.00;5102852;28;20525;-41
2022/11/17 01:33:59;;;;;;;15.10;7.78;;;;;;;10.65;100.00;94760.19;5101609;28;20082;-44
2022/11/17 01:36:29;;;;;;;10.57;7.45;;;;;;;10.82;100.00;94761.56;5097332;28;20075;-45
2022/11/17 01:38:58;;;;;;;14.55;7.40;;;;;;;10.80;100.00;94760.13;5097547;28;20133;-43
2022/11/17 01:41:28;;;;;;;13.13;7.85;;;;;;;10.86;100.00;94760.19;5101547;28;20066;-41
2022/11/17 01:43:58;;;;;;;15.55;7.47;;;;;;;10.82;100.00;94748.38;5101640;28;20522;-42
2022/11/17 01:46:30;;;;;;;16.90;7.63;;;;;;;11.03;100.00;94749.41;5095501;28;20075;-47
2022/11/17 01:49:05;;;;;;;13.10;7.82;;;;;;;11.14;100.00;94741.78;5092912;28;20121;-38
2022/11/17 01:51:35;;;;;;;9.80;7.53;;;;;;;11.19;100.00;94743.88;5095712;28;20577;-44
2022/11/17 01:54:06;;;;;;;11.25;7.85;;;;;;;11.25;100.00;94726.44;5101052;28;20067;-40
2022/11/17 01:56:37;;;;;;;;;;;;;;;11.33;100.00;94732.41;5103875;28;20083;-46
2022/11/17 01:59:09;;;;;;;12.15;7.85;;;;;;;11.16;100.00;94717.84;5098550;28;19955;-45
2022/11/17 02:01:54;;;;;;;11.65;7.70;;;;;;;11.18;100.00;94726.38;5099286;28;20087;-44
2022/11/17 02:04:24;;;;;;;11.10;7.90;;;;;;;11.32;100.00;94735.22;5096685;28;20113;-42
2022/11/17 02:06:56;;;;;;;11.13;8.43;;;;;;;11.45;100.00;94739.78;5097083;28;20082;-40
2022/11/17 02:09:26;;;;;;;14.32;7.95;;;;;;;11.52;100.00;94740.66;5091887;28;20042;-41
2022/11/17 02:11:57;;;;;;;10.38;7.53;;;;;;;11.57;100.00;94736.44;5093507;28;20086;-44
2022/11/17 02:14:25;;;;;;;13.40;8.32;;;;;;;11.47;100.00;94741.22;5098893;28;20239;-41
2022/11/17 02:16:53;;;;;;;13.15;9.07;;;;;;;11.50;100.00;94743.50;5094561;28;20083;-44
2022/11/17 02:19:23;;;;;;;9.48;7.88;;;;;;;11.60;100.00;94736.03;5081487;28;20085;-42
2022/11/17 02:22:09;;;;;;;9.17;7.67;;;;;;;11.68;100.00;94747.47;5093057;28;20573;-41
2022/11/17 02:25:05;;;;;;;10.18;7.90;;;;;;;11.55;100.00;94738.44;5078453;28;20075;-42
2022/11/17 02:27:57;;;;;;;11.30;8.68;;;;;;;11.64;100.00;94725.91;5094230;28;20105;-41
2022/11/17 02:30:29;;;;;;;11.70;8.00;;;;;;;11.58;100.00;94722.22;5097340;28;20098;-44
2022/11/17 02:33:01;;;;;;;13.45;9.25;;;;;;;11.59;100.00;94718.56;5097887;28;20068;-41
2022/11/17 02:35:37;;;;;;;17.88;10.07;;;;;;;11.62;100.00;94717.34;5096939;28;20084;-45
2022/11/17 02:38:14;;;;;;;16.73;9.65;;;;;;;11.57;100.00;94715.31;5094253;28;20548;-41
2022/11/17 02:40:44;;;;;;;15.50;9.93;;;;;;;11.59;100.00;94708.00;5094438;28;20095;-40
2022/11/17 02:46:04;;;;;;;13.95;8.75;;;;;;;11.58;100.00;94700.28;5097120;28;19974;-43
2022/11/17 02:48:34;;;;;;;13.23;8.77;;;;;;;11.61;100.00;94702.53;5095786;28;20078;-42
2022/11/17 02:51:03;;;;;;;;;;;;;;;11.59;100.00;94688.69;5095050;28;20522;-40
2022/11/17 02:53:31;;;;;;;11.15;7.70;;;;;;;11.46;100.00;94684.19;5097360;28;20402;-43
2022/11/17 02:56:01;;;;;;;9.70;8.13;;;;;;;11.64;100.00;94675.75;5095945;28;20487;-42
2022/11/17 02:58:31;;;;;;;9.45;8.05;;;;;;;11.64;100.00;94678.38;5092435;28;20246;-45
2022/11/17 03:01:14;;;;;;;10.43;8.73;;;;;;;11.74;100.00;94675.41;5095677;28;20079;-43
2022/11/17 03:03:51;;;;;;;10.07;8.88;;;;;;;11.76;100.00;94676.81;5099159;28;20079;-45
2022/11/17 03:06:37;;;;;;;9.82;7.95;;;;;;;11.69;100.00;94672.50;5092926;28;20075;-44
2022/11/17 03:09:10;;;;;;;10.57;8.60;;;;;;;11.72;100.00;94669.50;5095621;28;20075;-42
2022/11/17 03:11:44;;;;;;;9.65;8.63;;;;;;;11.65;100.00;94664.97;5094858;28;20090;-48
2022/11/17 03:14:20;;;;;;;11.25;8.88;;;;;;;11.80;100.00;94649.03;5102656;28;20072;-40
2022/11/17 03:16:56;;;;;;;10.38;8.40;;;;;;;11.77;100.00;94635.41;5099398;28;20090;-39
2022/11/17 03:19:29;;;;;;;10.40;8.30;;;;;;;11.67;100.00;94624.41;5093244;28;20078;-44
2022/11/17 03:22:01;;;;;;;12.10;9.20;;;;;;;11.56;100.00;94610.75;5096350;28;20102;-42
2022/11/17 03:24:32;;;;;;;10.15;7.88;;;;;;;11.37;100.00;94604.34;5099003;28;20114;-45
2022/11/17 03:27:02;;;;;;;;;;;;;;;11.96;100.00;94604.81;5096051;28;20099;-43
2022/11/17 03:29:33;;;;;;;11.40;8.85;;;;;;;11.60;100.00;94614.59;5094683;28;19927;-44
2022/11/17 03:32:03;;;;;;;12.25;8.38;;;;;;;11.39;100.00;94609.44;5092819;28;20075;-43
2022/11/17 03:34:36;;;;;;;11.35;9.48;;;;;;;11.71;100.00;94601.88;5096978;28;20071;-41
2022/11/17 03:37:07;;;;;;;13.43;8.93;;;;;;;11.56;100.00;94596.69;5098703;28;20071;-45
2022/11/17 03:39:37;;;;;;;13.50;9.50;;;;;;;11.48;100.00;94605.59;5088196;28;20087;-42
2022/11/17 03:42:10;;;;;;;16.70;9.88;;;;;;;11.85;100.00;94604.38;5094958;28;20082;-42
2022/11/17 03:44:41;;;;;;;13.98;10.02;;;;;;;11.82;100.00;94601.28;5093005;28;20543;-44
2022/11/17 03:47:11;;;;;;;21.42;11.60;;;;;;;11.87;100.00;94593.59;5091184;28;20080;-41
2022/11/17 03:49:44;;;;;;;18.25;11.55;;;;;;;12.01;100.00;94592.66;5090812;28;20095;-46
2022/11/17 03:52:13;;;;;;;18.67;10.98;;;;;;;12.00;100.00;94584.91;5098780;28;20075;-40
2022/11/17 03:54:41;;;;;;;17.77;11.20;;;;;;;11.91;100.00;94597.50;5098641;28;20098;-44
2022/11/17 03:57:14;;;;;;;21.50;12.60;;;;;;;11.99;100.00;94592.03;5096063;28;20079;-44
2022/11/17 03:59:50;;;;;;;17.48;11.88;;;;;;;12.19;100.00;94601.84;5091413;28;20095;-41
2022/11/17 04:02:19;;;;;;;17.60;10.95;;;;;;;12.16;100.00;94604.88;5098407;28;20075;-40
2022/11/17 04:05:06;;;;;;;16.17;11.73;;;;;;;12.25;100.00;94596.56;5091213;28;20064;-44
2022/11/17 04:07:36;;;;;;;18.65;11.95;;;;;;;12.46;100.00;94592.13;5094242;28;20086;-40
2022/11/17 04:10:06;;;;;;;18.70;11.75;;;;;;;12.35;100.00;94582.94;5091658;28;20083;-41
2022/11/17 04:18:07;;;;;;;17.52;11.93;;;;;;;12.27;100.00;94564.63;5093275;28;20485;-39
2022/11/17 04:20:36;;;;;;;15.75;11.38;;;;;;;12.33;100.00;94567.28;5090867;28;20068;-43
2022/11/17 04:23:10;;;;;;;16.00;11.48;;;;;;;12.41;100.00;94568.91;5103485;28;20059;-40
2022/11/17 04:28:39;;;;;;;14.23;11.02;;;;;;;12.16;100.00;94550.19;5095380;28;20082;-46
2022/11/17 04:31:14;;;;;;;13.80;10.70;;;;;;;12.03;100.00;94548.34;5093968;28;20075;-44
2022/11/17 04:33:44;;;;;;;12.88;10.23;;;;;;;11.92;100.00;94556.06;5095095;28;20079;-43
2022/11/17 04:36:14;;;;;;;11.98;10.18;;;;;;;12.25;100.00;94553.44;5077766;28;20071;-45
2022/11/17 04:38:43;;;;;;;14.02;10.23;;;;;;;12.14;100.00;94559.34;5093090;28;20079;-47
2022/11/17 04:43:59;;;;;;;11.63;9.35;;;;;;;12.33;100.00;94558.56;5096377;28;20545;-41
2022/11/17 04:46:30;;;;;;;11.60;9.25;;;;;;;12.54;100.00;94547.78;5092530;28;20075;-42
2022/11/17 04:48:59;;;;;;;13.45;9.60;;;;;;;12.46;100.00;94548.00;5094630;28;20647;-45
2022/11/17 04:51:28;;;;;;;10.63;9.25;;;;;;;12.44;100.00;94555.31;5090036;28;20451;-40
2022/11/17 04:53:56;;;;;;;23.55;13.40;;;;;;;12.37;100.00;94543.91;5101331;28;20083;-45
2022/11/17 04:56:25;;;;;;;19.95;11.88;;;;;;;12.44;100.00;94552.66;5097808;28;20075;-41
2022/11/17 04:58:54;;;;;;;19.40;11.00;;;;;;;12.45;100.00;94554.28;5098013;28;20810;-41
2022/11/17 05:01:23;;;;;;;13.95;10.02;;;;;;;12.48;100.00;94555.72;5103300;28;20082;-42
2022/11/17 05:03:54;;;;;;;12.38;9.60;;;;;;;12.67;100.00;94554.91;5106656;28;20102;-46
2022/11/17 05:06:24;;;;;;;15.48;9.75;;;;;;;12.61;100.00;94542.50;5094615;28;20087;-40
2022/11/17 05:08:54;;;;;;;10.55;9.10;;;;;;;12.50;100.00;94543.13;5099544;28;20071;-40
2022/11/17 05:14:10;;;;;;;11.18;9.55;;;;;;;12.16;100.00;94528.25;5094573;28;20586;-42
2022/11/17 05:19:28;;;;;;;10.77;9.40;;;;;;;12.36;100.00;94537.00;5095689;28;20071;-42
2022/11/17 05:21:57;;;;;;;13.50;9.80;;;;;;;12.35;100.00;94541.50;5105478;28;20090;-42
2022/11/17 05:24:25;;;;;;;9.93;8.70;;;;;;;12.48;100.00;94543.31;5093816;28;20083;-41
2022/11/17 05:26:54;;;;;;;13.80;8.88;;;;;;;12.65;100.00;94540.25;5096916;28;20075;-40
2022/11/17 05:29:23;;;;;;;11.05;9.40;;;;;;;12.79;100.00;94549.78;5098296;28;20090;-47
2022/11/17 05:31:51;;;;;;;11.50;9.85;;;;;;;12.79;100.00;94557.72;5100220;28;20092;-44
2022/11/17 05:34:19;;;;;;;10.68;8.73;;;;;;;12.88;100.00;94575.03;5092739;28;20068;-41
2022/11/17 05:36:49;;;;;;;14.95;9.95;;;;;;;13.06;100.00;94583.13;5097298;28;20063;-42
2022/11/17 05:39:18;;;;;;;10.30;8.57;;;;;;;13.09;100.00;94581.09;5085808;28;20063;-46
2022/11/17 05:41:46;;;;;;;10.57;9.15;;;;;;;13.04;100.00;94587.00;5104479;28;20569;-41
2022/11/17 05:44:15;;;;;;;10.68;9.05;;;;;;;13.16;100.00;94582.72;5102744;28;20129;-44
2022/11/17 05:46:43;;;;;;;10.45;9.10;;;;;;;12.97;100.00;94602.91;5094761;28;20079;-45
2022/11/17 05:49:11;;;;;;;10.57;8.77;;;;;;;13.03;100.00;94588.84;5104620;28;20067;-43
2022/11/17 05:51:40;;;;;;;11.10;8.40;;;;;;;12.15;100.00;94629.66;5096927;28;20086;-43
2022/11/17 05:54:10;;;;;;;11.85;7.90;;;;;;;12.43;100.00;94608.38;5100332;28;20105;-41
2022/11/17 05:56:40;;;;;;;10.75;8.95;;;;;;;12.59;100.00;94602.69;5097656;28;20056;-46
2022/11/17 05:59:15;;;;;;;10.45;8.30;;;;;;;12.72;100.00;94625.69;5106871;28;20071;-42
2022/11/17 06:01:47;;;;;;;9.98;8.02;;;;;;;12.46;100.00;94637.06;5081813;28;20059;-43
2022/11/17 06:04:18;;;;;;;11.15;8.77;;;;;;;12.90;100.00;94610.00;5105484;28;20090;-41
2022/11/17 06:06:47;;;;;;;10.77;8.52;;;;;;;12.70;100.00;94641.75;5096036;28;20087;-45
2022/11/17 06:09:17;;;;;;;10.65;9.02;;;;;;;13.14;100.00;94618.34;5100296;28;20080;-43
2022/11/17 06:11:45;;;;;;;10.63;8.75;;;;;;;13.11;100.00;94637.25;5103381;28;20433;-41
2022/11/17 06:14:14;;;;;;;10.88;8.48;;;;;;;13.28;100.00;94615.50;5096653;28;20450;-49
2022/11/17 06:16:44;;;;;;;10.55;9.02;;;;;;;13.36;100.00;94630.34;5103772;28;20078;-41
2022/11/17 06:19:15;;;;;;;11.15;8.68;;;;;;;13.51;100.00;94625.63;5097921;28;20083;-40
2022/11/17 06:21:44;;;;;;;9.75;8.43;;;;;;;13.39;100.00;94631.78;5100457;28;20091;-44
2022/11/17 06:24:34;;;;;;;11.77;8.55;;;;;;;13.46;100.00;94622.81;5098237;28;20091;-46
2022/11/17 06:27:02;;;;;;;11.73;9.05;;;;;;;13.47;100.00;94626.25;5094503;28;20074;-44
2022/11/17 06:29:30;;;;;;;11.73;8.63;;;;;;;13.51;100.00;94625.63;5096251;28;20083;-40
2022/11/17 06:31:59;;;;;;;10.60;8.93;;;;;;;13.56;100.00;94627.66;5093985;28;20078;-42
2022/11/17 06:34:27;;;;;;;11.13;9.13;;;;;;;13.58;100.00;94616.84;5101389;28;20079;-42
2022/11/17 06:36:56;;;;;;;11.80;9.10;;;;;;;13.52;100.00;94610.53;5096628;28;20083;-41
2022/11/17 06:39:24;;;;;;;15.10;10.15;;;;;;;13.42;100.00;94597.75;5097108;28;20083;-51
2022/11/17 06:41:54;;;;;;;12.00;9.45;;;;;;;13.48;100.00;94598.75;5097468;28;20071;-44
2022/11/17 06:44:22;;;;;;;15.77;10.90;;;;;;;13.45;100.00;94602.63;5097761;28;20637;-44
2022/11/17 06:46:50;;;;;;;15.40;10.15;;;;;;;13.37;100.00;94596.75;5095473;28;20135;-47
2022/11/17 06:49:19;;;;;;;12.95;10.07;;;;;;;13.02;100.00;94581.13;5096413;28;20086;-45
2022/11/17 06:51:47;;;;;;;12.10;9.68;;;;;;;12.99;100.00;94587.63;5092090;28;20071;-47
2022/11/17 06:54:16;;;;;;;13.13;9.77;;;;;;;13.13;100.00;94590.25;5101131;28;20438;-42
2022/11/17 06:56:44;;;;;;;12.68;10.13;;;;;;;13.33;100.00;94587.59;5098894;28;20094;-42
2022/11/17 06:59:14;;;;;;;16.85;11.65;;;;;;;13.41;100.00;94579.44;5094535;28;20087;-40
2022/11/17 07:01:43;;;;;;;;;;;;;;;13.43;100.00;94586.16;5097687;28;20529;-41
2022/11/17 07:04:11;;;;;;;16.55;12.82;;;;;;;13.32;100.00;94592.09;5103845;28;19962;-40
2022/11/17 07:06:39;;;;;;;14.75;11.52;;;;;;;13.44;100.00;94600.19;5096858;28;20070;-43
2022/11/17 07:09:08;;;;;;;10.52;9.07;;;;;;;13.40;100.00;94605.09;5099709;28;20063;-42
2022/11/17 07:11:36;;;;;;;11.02;9.57;;;;;;;13.33;100.00;94611.44;5094646;28;20072;-44
2022/11/17 07:14:05;;;;;;;11.68;9.75;;;;;;;13.48;100.00;94614.63;5091755;28;20089;-42
2022/11/17 07:16:34;;;;;;;11.90;9.80;;;;;;;13.49;100.00;94614.44;5101228;28;20079;-44
2022/11/17 07:19:03;;;;;;;11.02;9.60;;;;;;;13.70;100.00;94615.19;5100880;28;20548;-42
2022/11/17 07:21:31;;;;;;;12.35;8.57;;;;;;;13.77;100.00;94634.53;5102521;28;20071;-46
2022/11/17 07:24:00;;;;;;;11.30;9.07;;;;;;;13.88;100.00;94625.13;5094465;28;20075;-42
2022/11/17 07:26:28;;;;;;;11.23;8.73;;;;;;;13.90;100.00;94621.25;5095239;28;20059;-42
2022/11/17 07:28:57;;;;;;;10.32;8.90;;;;;;;13.91;100.00;94619.41;5100646;28;20071;-43
2022/11/17 07:31:25;;;;;;;9.93;8.23;;;;;;;13.95;100.00;94617.94;5081102;28;20064;-41
2022/11/17 07:33:55;;;;;;;10.32;8.35;;;;;;;14.03;100.00;94601.78;5100460;28;20549;-40
2022/11/17 07:36:24;;;;;;;11.45;8.73;;;;;;;13.84;100.00;94608.00;5096855;28;20083;-46
2022/11/17 07:38:52;;;;;;;10.25;8.70;;;;;;;14.04;100.00;94618.50;5094744;28;20071;-41
2022/11/17 07:41:20;;;;;;;11.13;8.88;;;;;;;13.79;100.00;94640.41;5098686;28;20091;-44
2022/11/17 07:43:49;;;;;;;11.77;9.38;;;;;;;13.84;100.00;94651.22;5101640;28;20080;-42
2022/11/17 07:46:17;;;;;;;10.93;8.70;;;;;;;14.06;100.00;94630.53;5083092;28;20449;-46
2022/11/17 07:48:46;;;;;;;9.98;8.77;;;;;;;14.13;100.00;94617.25;5098858;28;20087;-43
2022/11/17 07:51:16;;;;;;;10.40;8.73;;;;;;;14.30;100.00;94620.22;5094823;28;20506;-44
2022/11/17 07:53:44;;;;;;;11.30;8.55;;;;;;;14.33;100.00;94628.56;5096741;28;20560;-43
2022/11/17 07:56:13;;;;;;;9.52;8.52;;;;;;;14.44;100.00;94633.19;5094430;28;20082;-44
2022/11/17 07:58:41;;;;;;;11.02;8.25;;;;;;;14.38;100.00;94626.09;5096389;28;20075;-40
2022/11/17 08:01:13;;;;;;;9.52;8.50;;;;;;;14.57;100.00;94629.66;5098979;28;20065;-43
2022/11/17 08:03:42;;;;;;;9.68;8.20;;;;;;;14.62;100.00;94634.31;5096762;28;20071;-42
2022/11/17 08:06:10;;;;;;;9.30;7.90;;;;;;;14.70;100.00;94626.13;5095335;28;20102;-43
2022/11/17 08:08:40;;;;;;;8.50;7.57;;;;;;;14.86;100.00;94630.88;5094950;28;20091;-41
2022/11/17 08:11:09;;;;;;;8.18;7.13;;;;;;;14.96;100.00;94641.81;5093732;28;20079;-41
2022/11/17 08:13:39;;;;;;;8.32;7.25;;;;;;;15.02;100.00;94642.81;5099841;28;20522;-43
2022/11/17 08:16:08;;;;;;;7.80;6.95;;;;;;;15.05;100.00;94652.19;5097481;28;20078;-40
2022/11/17 08:18:37;;;;;;;9.23;7.15;;;;;;;15.07;100.00;94636.84;5094313;28;20080;-41
2022/11/17 08:21:07;;;;;;;9.38;7.30;;;;;;;15.04;100.00;94638.09;5100819;28;20459;-45
2022/11/17 08:23:36;;;;;;;9.25;8.27;;;;;;;15.13;100.00;94655.38;5093586;28;20565;-45
2022/11/17 08:26:08;;;;;;;12.18;9.45;;;;;;;15.25;100.00;94650.19;5094359;28;20091;-43
2022/11/17 08:28:37;;;;;;;8.13;7.28;;;;;;;15.24;100.00;94650.38;5103052;28;20094;-43
2022/11/17 08:31:07;;;;;;;8.07;7.10;;;;;;;15.23;100.00;94649.56;5095879;28;20136;-49
2022/11/17 08:33:36;;;;;;;7.68;6.88;;;;;;;15.25;100.00;94652.03;5106548;28;20083;-41
2022/11/17 08:36:05;;;;;;;8.43;7.00;;;;;;;15.30;100.00;94660.94;5102245;28;20083;-40
2022/11/17 08:38:34;;;;;;;8.10;6.28;;;;;;;15.22;100.00;94685.13;5104711;28;20079;-41
2022/11/17 08:41:07;;;;;;;6.95;5.85;;;;;;;15.20;100.00;94700.44;5103313;28;20082;-42
2022/11/17 08:43:36;;;;;;;7.70;6.53;;;;;;;15.15;100.00;94703.75;5100362;28;20552;-41
2022/11/17 08:46:05;;;;;;;9.82;8.02;;;;;;;15.42;100.00;94667.19;5097493;28;20079;-41
2022/11/17 08:48:34;;;;;;;8.10;6.32;;;;;;;15.40;100.00;94652.47;5100925;28;20133;-45
2022/11/17 08:51:05;;;;;;;7.95;6.97;;;;;;;15.42;100.00;94650.44;5099895;28;20084;-47
2022/11/17 08:53:33;;;;;;;8.80;7.80;;;;;;;15.44;100.00;94643.03;5102240;28;20087;-41
2022/11/17 08:56:02;;;;;;;8.20;7.40;;;;;;;15.22;100.00;94633.88;5108153;28;20084;-46
2022/11/17 08:58:31;;;;;;;10.02;5.95;;;;;;;15.13;100.00;94623.50;5103497;28;20087;-43
2022/11/17 09:01:00;;;;;;;7.57;5.97;;;;;;;15.10;100.00;94615.16;5104181;28;20088;-47
2022/11/17 09:03:32;;;;;;;5.90;4.88;;;;;;;15.49;100.00;94618.50;5099755;28;20072;-44
2022/11/17 09:06:01;;;;;;;4.65;4.07;;;;;;;15.66;100.00;94612.41;5104921;28;20090;-45
2022/11/17 09:08:30;;;;;;;5.47;3.70;;;;;;;15.74;100.00;94608.63;5100391;28;20471;-47
2022/11/17 09:11:13;;;;;;;7.13;4.78;;;;;;;15.88;100.00;94627.91;5101703;28;20072;-43
2022/11/17 09:13:44;;;;;;;7.40;4.57;;;;;;;16.11;100.00;94630.69;5097653;28;20072;-43
2022/11/17 09:16:13;;;;;;;7.82;3.80;;;;;;;16.25;100.00;94630.50;5098335;28;20086;-41
2022/11/17 09:18:41;;;;;;;8.77;7.05;;;;;;;16.52;100.00;94615.81;5097104;28;20083;-44
2022/11/17 09:21:12;;;;;;;4.18;3.35;;;;;;;16.83;100.00;94611.28;5105962;28;20538;-47
2022/11/17 09:23:41;;;;;;;5.70;2.95;;;;;;;16.79;100.00;94600.28;5099110;28;20083;-48
2022/11/17 09:26:10;;;;;;;6.70;2.65;;;;;;;17.04;100.00;94610.75;5102386;28;20078;-46
2022/11/17 09:28:39;;;;;;;4.47;3.53;;;;;;;17.31;100.00;94608.44;5104281;28;20083;-44
2022/11/17 09:31:11;;;;;;;6.55;3.88;;;;;;;17.59;100.00;94601.59;5105382;28;20099;-42
2022/11/17 09:33:39;;;;;;;3.47;2.80;;;;;;;17.51;100.00;94597.41;5100023;28;20564;-42
2022/11/17 09:36:08;;;;;;;4.70;3.30;;;;;;;17.70;100.00;94605.28;5103638;28;21005;-41
2022/11/17 09:38:37;;;;;;;4.97;3.17;;;;;;;17.59;100.00;94596.25;5100352;28;20087;-44
2022/11/17 09:41:22;;;;;;;5.88;5.03;;;;;;;17.64;100.00;94596.34;5096193;28;20071;-44
2022/11/17 09:43:56;;;;;;;7.00;3.63;;;;;;;17.54;100.00;94604.13;5103435;28;20086;-44
2022/11/17 09:46:31;;;;;;;19.55;16.70;;;;;;;17.99;100.00;94595.50;5098933;28;20472;-46
2022/11/17 09:49:06;;;;;;;6.20;2.70;;;;;;;17.91;100.00;94599.34;5100906;28;20078;-46
2022/11/17 09:51:36;;;;;;;3.75;2.65;;;;;;;18.08;100.00;94593.28;5098013;28;20450;-47
2022/11/17 09:54:11;;;;;;;4.27;2.50;;;;;;;18.37;100.00;94597.56;5098042;28;20075;-40
2022/11/17 09:56:40;;;;;;;4.20;2.58;;;;;;;18.50;100.00;94605.28;5097304;28;20492;-41
2022/11/17 09:59:12;;;;;;;6.80;5.72;;;;;;;18.81;100.00;94599.69;5095656;28;20075;-45
2022/11/17 10:01:42;;;;;;;3.17;2.40;;;;;;;19.32;100.00;94595.97;5081274;28;20090;-40
2022/11/17 10:04:12;;;;;;;2.28;1.73;;;;;;;19.95;100.00;94599.25;5096659;28;20086;-43
2022/11/17 10:06:42;;;;;;;9.90;6.78;;;;;;;20.18;100.00;94598.19;5097733;28;20564;-44
2022/11/17 10:09:18;;;;;;;3.08;2.00;;;;;;;20.38;98.23;94603.78;5096346;28;20529;-44
2022/11/17 10:11:54;;;;;;;5.05;1.50;;;;;;;20.29;94.39;94602.59;5099535;28;20517;-41
2022/11/17 10:14:22;;;;;;;2.28;1.60;;;;;;;20.23;94.45;94606.25;5097244;28;20727;-42
2022/11/17 10:16:54;;;;;;;3.42;1.80;;;;;;;20.43;94.40;94607.56;5098069;28;20087;-45
2022/11/17 10:19:24;;;;;;;2.30;1.40;;;;;;;20.27;100.00;94610.09;5094054;28;20272;-44
2022/11/17 10:21:54;;;;;;;3.30;1.48;;;;;;;20.33;99.41;94613.59;5099593;28;20075;-43
2022/11/17 10:24:36;;;;;;;2.78;1.45;;;;;;;20.62;94.29;94606.19;5095690;28;20068;-43
2022/11/17 10:27:06;;;;;;;3.13;1.33;;;;;;;20.91;87.51;94605.91;5098481;28;20072;-41
2022/11/17 10:29:34;;;;;;;;;;;;;;;21.16;81.73;94605.31;5099431;28;20079;-43
2022/11/17 10:32:08;;;;;;;3.45;1.27;;;;;;;21.12;82.15;94613.06;5099287;28;19962;-42
2022/11/17 10:34:38;;;;;;;1.80;1.20;;;;;;;21.03;80.78;94611.94;5098383;28;20501;-44
2022/11/17 10:37:24;;;;;;;2.45;1.08;;;;;;;21.08;81.05;94606.59;5101884;28;20528;-45
2022/11/17 10:40:09;;;;;;;3.70;1.20;;;;;;;21.21;84.04;94603.50;5101883;28;20525;-40
2022/11/17 10:42:38;;;;;;;3.20;2.55;;;;;;;21.52;83.43;94593.81;5094789;28;20083;-46
2022/11/17 10:45:16;;;;;;;3.85;2.53;;;;;;;21.73;79.90;94584.00;5100378;28;20067;-44
2022/11/17 10:47:46;;;;;;;11.48;5.57;;;;;;;21.80;78.54;94589.13;5098453;28;20087;-45
2022/11/17 10:50:20;;;;;;;9.13;4.30;;;;;;;22.02;75.69;94584.44;5095030;28;20083;-46
2022/11/17 10:52:50;;;;;;;4.68;2.90;;;;;;;22.16;74.62;94584.78;5103104;28;20106;-45
2022/11/17 10:55:20;;;;;;;79.95;34.15;;;;;;;22.34;71.94;94580.81;5099236;28;20086;-41
2022/11/17 10:57:49;;;;;;;;;;;;;;;22.52;68.37;94587.56;5102088;28;20058;-45
2022/11/17 11:00:29;;;;;;;5.60;2.50;;;;;;;22.50;71.43;94587.00;5092052;28;20355;-45
2022/11/17 11:03:15;;;;;;;5.55;2.20;;;;;;;22.64;70.97;94588.13;5099413;28;20080;-44
2022/11/17 11:05:56;;;;;;;4.82;3.70;;;;;;;23.04;68.65;94580.41;5091373;28;20538;-42
2022/11/17 11:08:26;;;;;;;3.53;2.35;;;;;;;22.77;68.43;94589.47;5096672;28;20083;-42
2022/11/17 11:10:56;;;;;;;3.33;1.40;;;;;;;22.76;67.01;94590.56;5100672;28;20084;-42
2022/11/17 11:13:29;;;;;;;4.38;1.60;;;;;;;22.63;66.18;94594.56;5104317;28;20066;-40
2022/11/17 11:15:57;;;;;;;4.13;1.50;;;;;;;22.47;66.76;94592.91;5081399;28;20056;-40
2022/11/17 11:18:29;;;;;;;2.95;1.48;;;;;;;22.33;71.21;94594.47;5096604;28;20075;-41
2022/11/17 11:21:06;;;;;;;5.20;1.50;;;;;;;22.41;72.28;94602.03;5095482;28;20106;-47
2022/11/17 11:23:41;;;;;;;9.48;1.50;;;;;;;22.60;68.17;94592.41;5094986;28;20087;-45
2022/11/17 11:26:19;;;;;;;1.73;1.35;;;;;;;22.45;80.71;94603.13;5096359;28;20090;-44
2022/11/17 11:29:03;;;;;;;3.72;1.58;;;;;;;22.67;76.83;94587.56;5099798;28;20048;-47
2022/11/17 11:31:38;;;;;;;7.40;1.60;;;;;;;22.80;72.31;94593.50;5094403;28;20631;-42
2022/11/17 11:34:16;;;;;;;4.00;1.70;;;;;;;22.70;70.71;94597.78;5098568;28;20086;-45
2022/11/17 11:36:49;;;;;;;3.05;1.50;;;;;;;22.40;82.74;94609.28;5077671;28;20063;-43
2022/11/17 11:39:28;;;;;;;5.57;1.40;;;;;;;21.17;100.00;94621.16;5095911;28;20043;-42
2022/11/17 11:42:09;;;;;;;2.88;1.42;;;;;;;19.86;100.00;94630.19;5094054;28;20079;-41
2022/11/17 11:44:50;;;;;;;2.72;1.55;;;;;;;20.21;100.00;94624.47;5097357;28;20079;-47
2022/11/17 11:47:29;;;;;;;2.65;1.33;;;;;;;19.19;100.00;94653.22;5097638;28;20517;-40
2022/11/17 11:50:04;;;;;;;2.83;1.50;;;;;;;18.92;100.00;94662.91;5092206;28;20101;-46
2022/11/17 11:52:35;;;;;;;3.17;1.75;;;;;;;18.13;100.00;94638.72;5103404;28;20077;-43
2022/11/17 11:55:06;;;;;;;2.17;1.35;;;;;;;18.74;100.00;94624.69;5097377;28;20514;-48
2022/11/17 11:57:37;;;;;;;2.72;1.30;;;;;;;18.73;100.00;94628.41;5097664;28;20075;-42
2022/11/17 12:00:07;;;;;;;3.13;1.58;;;;;;;18.74;100.00;94642.56;5095929;28;20068;-42
2022/11/17 12:02:43;;;;;;;2.72;1.17;;;;;;;19.21;100.00;94645.78;5098444;28;20079;-42
2022/11/17 12:05:26;;;;;;;2.47;1.30;;;;;;;18.82;100.00;94649.38;5106314;28;20071;-44
2022/11/17 12:07:58;;;;;;;1.55;1.13;;;;;;;19.25;100.00;94638.09;5101468;28;20080;-42
2022/11/17 12:10:31;;;;;;;4.55;1.30;;;;;;;19.57;100.00;94622.25;5101742;28;20083;-47